createdAt,value
2023-02-06T00:00:10.916Z,101116.06
2023-02-06T00:03:12.637Z,101123.69
2023-02-06T00:06:15.012Z,101129.63
2023-02-06T00:09:16.549Z,101124.75
2023-02-06T00:12:18.316Z,101126.38
2023-02-06T00:15:21.639Z,101119.16
2023-02-06T00:18:23.397Z,101130.31
2023-02-06T00:21:26.254Z,101136.13
2023-02-06T00:24:27.919Z,101150.16
2023-02-06T00:27:29.800Z,101135.41
2023-02-06T00:30:33.524Z,101134.34
2023-02-06T00:33:35.732Z,101138.66
2023-02-06T00:36:37.799Z,101140.50
2023-02-06T00:39:41.741Z,101139.69
2023-02-06T00:42:45.843Z,101142.03
2023-02-06T00:45:52.418Z,101143.28
2023-02-06T00:48:54.083Z,101137.97
2023-02-06T00:51:55.714Z,101131.19
2023-02-06T00:54:57.294Z,101128.97
2023-02-06T00:58:02.199Z,101114.00
2023-02-06T01:01:04.415Z,101120.97
2023-02-06T01:04:06.098Z,101125.97
2023-02-06T01:07:07.764Z,101131.75
2023-02-06T01:10:11.934Z,101138.94
2023-02-06T01:13:14.481Z,101140.06
2023-02-06T01:16:19.064Z,101145.50
2023-02-06T01:19:20.719Z,101143.28
2023-02-06T01:22:22.290Z,101144.28
2023-02-06T01:25:23.991Z,101159.91
2023-02-06T01:28:25.612Z,101166.34
2023-02-06T01:31:29.794Z,101158.72
2023-02-06T01:34:31.409Z,101156.38
2023-02-06T01:37:33.253Z,101153.63
2023-02-06T01:40:34.930Z,101141.38
2023-02-06T01:43:40.105Z,101132.66
2023-02-06T01:46:44.804Z,101131.91
2023-02-06T01:49:50.254Z,101115.22
2023-02-06T01:52:52.450Z,101119.06
2023-02-06T01:55:56.440Z,101131.41
2023-02-06T01:59:02.901Z,101120.22
2023-02-06T02:02:04.659Z,101115.69
2023-02-06T02:05:08.351Z,101120.25
2023-02-06T02:08:18.469Z,101113.75
2023-02-06T02:11:28.522Z,101126.78
2023-02-06T02:14:30.534Z,101114.06
2023-02-06T02:18:02.552Z,101123.56
2023-02-06T02:21:27.641Z,101115.00
2023-02-06T02:25:06.831Z,101111.91
2023-02-06T02:28:31.388Z,101120.91
2023-02-06T02:31:49.950Z,101116.44
2023-02-06T02:35:14.223Z,101112.75
2023-02-06T02:38:19.100Z,101110.69
2023-02-06T02:41:24.449Z,101120.91
2023-02-06T02:44:36.805Z,101118.09
2023-02-06T02:47:49.579Z,101100.53
2023-02-06T02:50:54.130Z,101118.53
2023-02-06T02:53:57.905Z,101129.00
2023-02-06T02:57:09.952Z,101129.00
2023-02-06T03:00:13.322Z,101130.66
2023-02-06T03:03:18.216Z,101135.16
2023-02-06T03:06:47.645Z,101126.41
2023-02-06T03:10:05.772Z,101126.84
2023-02-06T03:13:25.918Z,101127.00
2023-02-06T03:16:40.947Z,101109.94
2023-02-06T03:19:48.556Z,101118.31
2023-02-06T03:22:51.704Z,101124.44
2023-02-06T03:26:00.419Z,101123.97
2023-02-06T03:29:06.827Z,101117.78
2023-02-06T03:32:15.532Z,101124.72
2023-02-06T03:35:21.591Z,101116.56
2023-02-06T03:38:24.793Z,101114.78
2023-02-06T03:41:31.940Z,101129.50
2023-02-06T03:44:38.228Z,101129.88
2023-02-06T03:47:41.222Z,101130.75
2023-02-06T03:50:46.598Z,101140.31
2023-02-06T03:53:52.539Z,101133.78
2023-02-06T03:57:01.040Z,101138.84
2023-02-06T04:00:04.492Z,101136.41
2023-02-06T04:03:14.665Z,101139.72
2023-02-06T04:06:16.340Z,101134.19
2023-02-06T04:09:17.871Z,101129.28
2023-02-06T04:12:20.177Z,101120.75
2023-02-06T04:15:22.162Z,101077.50
2023-02-06T04:18:24.094Z,101124.94
2023-02-06T04:21:25.644Z,101116.13
2023-02-06T04:24:28.753Z,101111.09
2023-02-06T04:27:32.641Z,101117.16
2023-02-06T04:30:34.334Z,101125.53
2023-02-06T04:33:35.922Z,101122.09
2023-02-06T04:36:37.751Z,101123.31
2023-02-06T04:39:39.478Z,101093.22
2023-02-06T04:42:41.128Z,101093.38
2023-02-06T04:45:42.695Z,101122.72
2023-02-06T04:48:44.257Z,101119.06
2023-02-06T04:51:45.896Z,101118.47
2023-02-06T04:54:47.561Z,101127.50
2023-02-06T04:57:49.287Z,101118.31
2023-02-06T05:00:50.901Z,101112.00
2023-02-06T05:03:52.479Z,101120.22
2023-02-06T05:06:54.120Z,101116.50
2023-02-06T05:09:55.709Z,101127.69
2023-02-06T05:12:57.338Z,101113.84
2023-02-06T05:16:08.396Z,101129.81
2023-02-06T05:19:10.064Z,101125.78
2023-02-06T05:22:11.602Z,101136.00
2023-02-06T05:25:13.172Z,101135.78
2023-02-06T05:28:14.784Z,101130.28
2023-02-06T05:31:19.895Z,101138.84
2023-02-06T05:34:21.686Z,101132.31
2023-02-06T05:37:23.312Z,101128.78
2023-02-06T05:40:25.016Z,101125.69
2023-02-06T05:43:26.679Z,101123.41
2023-02-06T05:46:28.466Z,101107.28
2023-02-06T05:49:30.032Z,101118.88
2023-02-06T05:52:31.814Z,101125.88
2023-02-06T05:55:33.498Z,101120.16
2023-02-06T05:58:35.231Z,101123.41
2023-02-06T06:01:36.930Z,101126.88
2023-02-06T06:04:38.541Z,101130.38
2023-02-06T06:07:40.153Z,101136.50
2023-02-06T06:10:41.744Z,101124.44
2023-02-06T06:13:43.321Z,101120.38
2023-02-06T06:16:44.946Z,101120.78
2023-02-06T06:19:46.544Z,101142.50
2023-02-06T06:22:48.149Z,101126.00
2023-02-06T06:25:50.329Z,101124.59
2023-02-06T06:28:51.985Z,101121.38
2023-02-06T06:31:53.704Z,101124.41
2023-02-06T06:34:55.320Z,101126.31
2023-02-06T06:37:56.888Z,101134.28
2023-02-06T06:40:58.576Z,101119.88
2023-02-06T06:44:00.743Z,101126.81
2023-02-06T06:47:02.476Z,101126.22
2023-02-06T06:50:05.093Z,101132.78
2023-02-06T06:53:06.824Z,101106.47
2023-02-06T06:56:11.470Z,101114.19
2023-02-06T06:59:12.985Z,101123.44
2023-02-06T07:02:14.909Z,101114.06
2023-02-06T07:05:16.623Z,101127.72
2023-02-06T07:08:18.263Z,101129.81
2023-02-06T07:11:19.964Z,101128.41
2023-02-06T07:14:21.539Z,101133.72
2023-02-06T07:17:23.281Z,101133.50
2023-02-06T07:20:24.944Z,101119.75
2023-02-06T07:23:27.028Z,101114.28
2023-02-06T07:26:28.969Z,101106.16
2023-02-06T07:29:30.581Z,101104.91
2023-02-06T07:32:35.948Z,101109.19
2023-02-06T07:35:37.803Z,101115.94
2023-02-06T07:38:40.097Z,101120.44
2023-02-06T07:41:42.878Z,101131.69
2023-02-06T07:44:48.551Z,101131.91
2023-02-06T07:47:51.998Z,101135.81
2023-02-06T07:50:53.562Z,101140.50
2023-02-06T07:53:55.238Z,101142.13
2023-02-06T07:56:56.889Z,101154.19
2023-02-06T07:59:58.461Z,101162.41
2023-02-06T08:03:00.021Z,101165.84
2023-02-06T08:06:06.787Z,101163.59
2023-02-06T08:09:11.093Z,101166.84
2023-02-06T08:12:22.452Z,101159.47
2023-02-06T08:15:25.203Z,101159.69
2023-02-06T08:18:26.768Z,101144.34
2023-02-06T08:21:28.378Z,101156.78
2023-02-06T08:24:30.095Z,101150.25
2023-02-06T08:27:32.070Z,101136.59
2023-02-06T08:30:34.486Z,101150.03
2023-02-06T08:33:36.658Z,101160.06
2023-02-06T08:36:38.552Z,101155.94
2023-02-06T08:39:40.363Z,101145.34
2023-02-06T08:42:41.983Z,101159.22
2023-02-06T08:45:48.571Z,101147.09
2023-02-06T08:48:55.831Z,101146.47
2023-02-06T08:51:57.444Z,101158.44
2023-02-06T08:54:58.997Z,101156.91
2023-02-06T08:58:00.638Z,101151.69
2023-02-06T09:01:10.526Z,101169.38
2023-02-06T09:04:14.215Z,101161.25
2023-02-06T09:07:17.351Z,101152.91
2023-02-06T09:10:27.201Z,101155.16
2023-02-06T09:13:29.547Z,101147.41
2023-02-06T09:16:34.493Z,101153.22
2023-02-06T09:19:36.054Z,101154.22
2023-02-06T09:22:37.673Z,101168.16
2023-02-06T09:25:39.883Z,101174.56
2023-02-06T09:28:41.676Z,101160.69
2023-02-06T09:31:43.566Z,101169.25
2023-02-06T09:34:45.141Z,101161.97
2023-02-06T09:37:47.819Z,101149.06
2023-02-06T09:40:49.691Z,101156.78
2023-02-06T09:43:56.838Z,101147.31
2023-02-06T09:47:20.058Z,101149.84
2023-02-06T09:50:39.686Z,101140.44
2023-02-06T09:54:25.757Z,101147.31
2023-02-06T09:57:48.807Z,101152.78
2023-02-06T10:01:04.515Z,101138.72
2023-02-06T10:04:30.981Z,101140.59
2023-02-06T10:07:57.295Z,101125.19
2023-02-06T10:11:01.678Z,101128.69
2023-02-06T10:14:19.143Z,101131.72
2023-02-06T10:17:25.826Z,101131.63
2023-02-06T10:20:38.137Z,101116.06
2023-02-06T10:23:50.279Z,101113.66
2023-02-06T10:26:53.586Z,101109.25
2023-02-06T10:29:55.193Z,101106.34
2023-02-06T10:33:25.229Z,101088.69
2023-02-06T10:36:46.050Z,101092.88
2023-02-06T10:40:16.364Z,101088.69
2023-02-06T10:43:40.441Z,101084.63
2023-02-06T10:46:46.175Z,101087.28
2023-02-06T10:49:55.342Z,101081.91
2023-02-06T10:53:03.994Z,101088.06
2023-02-06T10:56:15.363Z,101086.41
2023-02-06T10:59:33.750Z,101075.59
2023-02-06T11:03:06.320Z,101056.66
2023-02-06T11:06:12.573Z,101060.22
2023-02-06T11:09:15.212Z,101052.56
2023-02-06T11:12:30.089Z,101057.34
2023-02-06T11:15:41.075Z,101053.78
2023-02-06T11:18:48.598Z,101038.50
2023-02-06T11:21:56.510Z,101052.63
2023-02-06T11:25:10.311Z,101038.91
2023-02-06T11:28:17.994Z,101041.59
2023-02-06T11:31:44.288Z,101032.78
2023-02-06T11:34:56.541Z,101006.94
2023-02-06T11:38:25.572Z,101043.31
2023-02-06T11:41:28.108Z,101019.03
2023-02-06T11:44:40.518Z,101036.25
2023-02-06T11:47:42.115Z,101036.06
2023-02-06T11:50:54.819Z,101035.59
2023-02-06T11:54:02.564Z,101034.91
2023-02-06T11:57:22.620Z,101023.78
2023-02-06T12:00:24.686Z,101020.38
2023-02-06T12:03:32.014Z,101019.31
2023-02-06T12:06:37.059Z,101003.38
2023-02-06T12:09:38.674Z,101016.53
2023-02-06T12:12:44.189Z,100992.03
2023-02-06T12:15:50.008Z,101015.19
2023-02-06T12:18:57.718Z,101006.84
2023-02-06T12:22:07.656Z,101023.06
2023-02-06T12:25:34.838Z,101014.72
2023-02-06T12:29:01.483Z,101004.78
2023-02-06T12:32:14.733Z,101012.75
2023-02-06T12:35:31.009Z,101010.31
2023-02-06T12:38:40.236Z,101000.97
2023-02-06T12:41:53.437Z,100989.44
2023-02-06T12:45:12.700Z,100984.41
2023-02-06T12:48:23.739Z,100958.13
2023-02-06T12:51:40.853Z,100960.66
2023-02-06T12:54:47.176Z,100959.50
2023-02-06T12:57:49.673Z,100951.22
2023-02-06T13:01:32.091Z,100961.09
2023-02-06T13:04:37.604Z,100945.47
2023-02-06T13:07:48.958Z,100942.94
2023-02-06T13:11:03.174Z,100951.31
2023-02-06T13:14:08.538Z,100958.44
2023-02-06T13:17:17.976Z,100967.22
2023-02-06T13:20:21.469Z,100952.28
2023-02-06T13:23:24.342Z,100951.16
2023-02-06T13:26:48.886Z,100945.72
2023-02-06T13:29:54.085Z,100930.31
2023-02-06T13:33:10.819Z,100936.25
2023-02-06T13:36:27.267Z,100934.34
2023-02-06T13:39:32.340Z,100932.81
2023-02-06T13:42:42.189Z,100922.84
2023-02-06T13:45:53.306Z,100938.88
2023-02-06T13:49:28.366Z,100943.88
2023-02-06T13:53:08.952Z,100939.59
2023-02-06T13:56:25.945Z,100948.56
2023-02-06T13:59:32.655Z,100947.91
2023-02-06T14:02:41.846Z,100945.03
2023-02-06T14:06:14.810Z,100952.16
2023-02-06T14:09:30.681Z,100952.75
2023-02-06T14:12:54.644Z,100935.19
2023-02-06T14:16:17.867Z,100944.72
2023-02-06T14:19:22.289Z,100939.59
2023-02-06T14:22:47.249Z,100927.25
2023-02-06T14:26:10.028Z,100944.94
2023-02-06T14:29:44.469Z,100938.09
2023-02-06T14:33:12.443Z,100945.00
2023-02-06T14:36:32.137Z,100961.34
2023-02-06T14:39:44.121Z,100958.84
2023-02-06T14:42:46.701Z,100966.63
2023-02-06T14:46:06.294Z,100954.06
2023-02-06T14:49:18.729Z,100968.94
2023-02-06T14:52:23.994Z,100963.38
2023-02-06T14:55:39.003Z,100966.13
2023-02-06T14:58:46.094Z,100958.63
2023-02-06T15:01:50.198Z,100958.13
2023-02-06T15:04:52.210Z,100964.66
2023-02-06T15:07:59.259Z,100964.75
2023-02-06T15:11:16.814Z,100972.31
2023-02-06T15:14:24.903Z,100971.72
2023-02-06T15:17:26.896Z,100972.53
2023-02-06T15:20:36.323Z,100978.25
2023-02-06T15:24:12.937Z,100973.69
2023-02-06T15:27:31.593Z,100975.44
2023-02-06T15:30:35.642Z,100979.72
2023-02-06T15:33:37.424Z,100974.06
2023-02-06T15:36:39.412Z,100983.44
2023-02-06T15:39:41.820Z,100982.63
2023-02-06T15:42:43.520Z,100978.00
2023-02-06T15:45:46.264Z,100982.75
2023-02-06T15:48:48.954Z,100983.44
2023-02-06T15:51:55.006Z,100981.38
2023-02-06T15:54:58.150Z,100985.06
2023-02-06T15:58:02.045Z,100989.38
2023-02-06T16:01:07.669Z,100986.72
2023-02-06T16:04:19.733Z,100990.16
2023-02-06T16:07:24.519Z,100985.56
2023-02-06T16:10:31.041Z,100994.47
2023-02-06T16:13:33.047Z,100987.25
2023-02-06T16:16:34.678Z,100989.13
2023-02-06T16:19:46.624Z,100998.53
2023-02-06T16:22:48.199Z,100997.81
2023-02-06T16:26:02.027Z,101008.59
2023-02-06T16:29:09.560Z,101004.53
2023-02-06T16:32:31.490Z,101006.63
2023-02-06T16:35:33.083Z,101011.03
2023-02-06T16:38:34.692Z,101002.31
2023-02-06T16:41:39.443Z,101013.91
2023-02-06T16:44:45.312Z,101006.59
2023-02-06T16:47:47.525Z,101006.59
2023-02-06T16:50:49.306Z,101018.31
2023-02-06T16:53:51.589Z,101015.53
2023-02-06T16:56:55.220Z,101026.88
2023-02-06T16:59:57.637Z,101042.41
2023-02-06T17:02:59.745Z,101038.25
2023-02-06T17:06:01.371Z,101015.91
2023-02-06T17:09:08.900Z,101021.25
2023-02-06T17:12:21.863Z,101018.88
2023-02-06T17:15:23.465Z,101037.25
2023-02-06T17:18:25.204Z,101026.66
2023-02-06T17:21:29.747Z,101021.78
2023-02-06T17:24:31.360Z,101008.25
2023-02-06T17:27:32.937Z,101010.44
2023-02-06T17:30:36.523Z,101005.31
2023-02-06T17:33:38.430Z,101001.16
2023-02-06T17:36:40.877Z,100997.53
2023-02-06T17:39:42.550Z,101002.44
2023-02-06T17:42:44.107Z,101006.44
2023-02-06T17:45:45.925Z,100991.69
2023-02-06T17:48:47.680Z,100995.53
2023-02-06T17:51:49.258Z,101005.59
2023-02-06T17:54:51.146Z,101011.25
2023-02-06T17:57:53.587Z,101006.38
2023-02-06T18:00:55.161Z,100996.00
2023-02-06T18:03:56.722Z,101001.19
2023-02-06T18:06:58.279Z,100993.53
2023-02-06T18:09:59.880Z,100988.00
2023-02-06T18:13:01.501Z,100971.44
2023-02-06T18:16:03.538Z,100969.06
2023-02-06T18:19:05.141Z,100967.72
2023-02-06T18:22:07.099Z,100963.59
2023-02-06T18:25:11.595Z,100964.63
2023-02-06T18:28:14.821Z,100956.28
2023-02-06T18:31:27.738Z,100955.69
2023-02-06T18:34:29.355Z,100943.63
2023-02-06T18:37:31.000Z,100950.56
2023-02-06T18:40:32.800Z,100950.22
2023-02-06T18:43:34.318Z,100951.63
2023-02-06T18:46:36.334Z,100954.72
2023-02-06T18:49:38.856Z,100950.56
2023-02-06T18:52:40.498Z,100942.53
2023-02-06T18:55:42.372Z,100937.69
2023-02-06T18:58:43.924Z,100939.03
2023-02-06T19:01:45.659Z,100937.31
2023-02-06T19:04:47.266Z,100940.66
2023-02-06T19:07:50.732Z,100924.66
2023-02-06T19:10:52.310Z,100916.56
2023-02-06T19:13:54.619Z,100909.84
2023-02-06T19:16:58.215Z,100915.50
2023-02-06T19:19:59.949Z,100920.84
2023-02-06T19:23:01.788Z,100924.09
2023-02-06T19:26:08.592Z,100923.44
2023-02-06T19:29:11.281Z,100911.94
2023-02-06T19:32:12.933Z,100904.41
2023-02-06T19:35:15.503Z,100880.16
2023-02-06T19:38:17.133Z,100883.94
2023-02-06T19:41:20.959Z,100876.44
2023-02-06T19:44:22.621Z,100882.50
2023-02-06T19:47:24.288Z,100885.38
2023-02-06T19:50:25.863Z,100883.19
2023-02-06T19:53:27.499Z,100895.69
2023-02-06T19:56:42.259Z,100901.69
2023-02-06T19:59:43.833Z,100881.81
2023-02-06T20:02:45.409Z,100900.28
2023-02-06T20:05:47.010Z,100891.91
2023-02-06T20:08:48.797Z,100903.41
2023-02-06T20:11:50.397Z,100898.88
2023-02-06T20:14:52.123Z,100897.41
2023-02-06T20:17:53.698Z,100909.22
2023-02-06T20:20:55.536Z,100901.84
2023-02-06T20:23:59.635Z,100908.41
2023-02-06T20:27:05.695Z,100901.91
2023-02-06T20:30:08.122Z,100899.91
2023-02-06T20:33:10.837Z,100909.75
2023-02-06T20:36:18.064Z,100898.63
2023-02-06T20:39:19.847Z,100900.13
2023-02-06T20:42:24.645Z,100894.34
2023-02-06T20:45:26.219Z,100908.34
2023-02-06T20:48:28.177Z,100903.75
2023-02-06T20:51:31.348Z,100900.16
2023-02-06T20:54:32.978Z,100904.38
2023-02-06T20:57:35.491Z,100895.69
2023-02-06T21:00:37.504Z,100882.44
2023-02-06T21:03:39.448Z,100902.22
2023-02-06T21:06:41.129Z,100890.94
2023-02-06T21:09:42.653Z,100881.13
2023-02-06T21:12:44.211Z,100883.88
2023-02-06T21:15:57.184Z,100890.09
2023-02-06T21:18:59.551Z,100890.31
2023-02-06T21:22:01.921Z,100894.81
2023-02-06T21:25:04.514Z,100888.69
2023-02-06T21:28:06.464Z,100876.84
2023-02-06T21:31:12.960Z,100880.09
2023-02-06T21:34:19.106Z,100863.09
2023-02-06T21:37:22.566Z,100857.84
2023-02-06T21:40:24.164Z,100851.50
2023-02-06T21:43:25.825Z,100854.97
2023-02-06T21:46:30.356Z,100846.25
2023-02-06T21:49:32.131Z,100845.25
2023-02-06T21:52:37.859Z,100837.66
2023-02-06T21:55:43.882Z,100843.13
2023-02-06T21:58:45.831Z,100837.00
2023-02-06T22:01:47.438Z,100838.09
2023-02-06T22:04:49.545Z,100851.63
2023-02-06T22:07:51.146Z,100852.66
2023-02-06T22:10:52.724Z,100839.38
2023-02-06T22:13:58.667Z,100848.75
2023-02-06T22:17:00.449Z,100851.19
2023-02-06T22:20:02.158Z,100845.25
2023-02-06T22:23:03.725Z,100836.72
2023-02-06T22:26:08.097Z,100848.00
2023-02-06T22:29:16.157Z,100844.97
2023-02-06T22:32:17.984Z,100836.63
2023-02-06T22:35:19.685Z,100828.25
2023-02-06T22:38:21.425Z,100819.63
2023-02-06T22:41:23.576Z,100832.72
2023-02-06T22:44:25.309Z,100840.91
2023-02-06T22:47:26.904Z,100837.63
2023-02-06T22:50:28.458Z,100831.97
2023-02-06T22:53:30.059Z,100828.69
2023-02-06T22:56:37.255Z,100827.31
2023-02-06T22:59:39.063Z,100813.47
2023-02-06T23:02:40.702Z,100813.69
2023-02-06T23:05:42.278Z,100833.34
2023-02-06T23:08:43.898Z,100821.72
2023-02-06T23:11:46.065Z,100825.16
2023-02-06T23:14:47.608Z,100810.44
2023-02-06T23:17:49.635Z,100803.50
2023-02-06T23:20:59.780Z,100792.66
2023-02-06T23:24:01.676Z,100806.84
2023-02-06T23:27:03.376Z,100813.84
2023-02-06T23:30:05.801Z,100801.59
2023-02-06T23:33:07.471Z,100815.69
2023-02-06T23:36:13.762Z,100821.63
2023-02-06T23:39:15.869Z,100820.38
2023-02-06T23:42:17.463Z,100803.06
2023-02-06T23:45:19.058Z,100823.69
2023-02-06T23:48:20.818Z,100825.91
2023-02-06T23:51:23.152Z,100815.25
2023-02-06T23:54:24.687Z,100819.63
2023-02-06T23:57:26.316Z,100811.72
